Terminal Aerodrome Forecast
Issued by NWS

Current Version | Previous Version | Text Only | Print | Product List | Glossary On
Versions: 1 2 3 4 5 6 7 8 9 10 11 12 13 14 15 16 17 18 19 20 21 22 23 24 25 26 27
474
FTUS41 KBUF 281739
TAFJHW
TAF
KJHW 281739Z 2818/2918 00000KT P6SM SKC
     FM281900 00000KT P6SM BKN050
     FM282000 00000KT P6SM VCTS BKN050CB
     FM290200 00000KT P6SM BKN050
     FM291100 00000KT P6SM BKN200
     FM291400 36004KT P6SM BKN090
      AMD LTD TO CLD VIS AND WIND=

USA.gov is the U.S. government's official web portal to all federal, state and local government web resources and services.